createdAt,value
2023-05-05T00:01:07.924Z,17.30
2023-05-05T00:03:37.961Z,16.15
2023-05-05T00:06:08.203Z,16.13
2023-05-05T00:08:37.836Z,16.73
2023-05-05T00:11:07.532Z,18.20
2023-05-05T00:13:37.349Z,18.05
2023-05-05T00:16:07.596Z,17.52
2023-05-05T00:18:37.274Z,17.05
2023-05-05T00:21:06.870Z,16.95
2023-05-05T00:23:36.557Z,16.73
2023-05-05T00:26:06.299Z,16.40
2023-05-05T00:28:35.877Z,15.82
2023-05-05T00:31:05.611Z,14.75
2023-05-05T00:33:35.327Z,14.90
2023-05-05T00:36:05.215Z,13.68
2023-05-05T00:38:34.993Z,14.82
2023-05-05T00:41:04.672Z,14.52
2023-05-05T00:43:34.536Z,15.23
2023-05-05T00:46:11.868Z,14.73
2023-05-05T00:48:42.165Z,14.27
2023-05-05T00:51:12.141Z,13.25
2023-05-05T00:53:44.613Z,13.45
2023-05-05T00:56:23.506Z,14.65
2023-05-05T00:58:53.844Z,13.88
2023-05-05T01:01:23.336Z,12.80
2023-05-05T01:03:52.999Z,13.25
2023-05-05T01:07:02.478Z,13.82
2023-05-05T01:10:15.167Z,12.40
2023-05-05T01:13:06.158Z,13.00
2023-05-05T01:16:02.633Z,13.23
2023-05-05T01:19:01.137Z,14.30
2023-05-05T01:21:44.941Z,13.70
2023-05-05T01:24:53.827Z,12.57
2023-05-05T01:27:47.132Z,12.05
2023-05-05T01:30:45.637Z,12.48
2023-05-05T01:33:20.000Z,12.30
2023-05-05T01:35:55.546Z,12.55
2023-05-05T01:38:34.647Z,12.63
2023-05-05T01:41:15.852Z,12.63
2023-05-05T01:43:49.138Z,13.00
2023-05-05T01:46:20.877Z,11.82
2023-05-05T01:48:51.254Z,14.15
2023-05-05T01:51:24.437Z,12.70
2023-05-05T01:54:00.891Z,12.00
2023-05-05T01:56:32.226Z,12.00
2023-05-05T01:59:03.840Z,11.40
2023-05-05T02:01:37.850Z,11.57
2023-05-05T02:04:08.929Z,11.60
2023-05-05T02:06:40.381Z,12.30
2023-05-05T02:09:13.814Z,12.30
2023-05-05T02:11:43.942Z,11.27
2023-05-05T02:14:14.504Z,10.73
2023-05-05T02:16:45.172Z,11.70
2023-05-05T02:19:16.479Z,12.18
2023-05-05T02:21:46.460Z,12.30
2023-05-05T02:24:16.104Z,11.25
2023-05-05T02:26:48.164Z,11.43
2023-05-05T02:29:24.428Z,11.65
2023-05-05T02:32:00.030Z,11.18
2023-05-05T02:34:31.507Z,10.80
2023-05-05T02:37:04.963Z,11.50
2023-05-05T02:40:00.335Z,11.63
2023-05-05T02:42:33.729Z,11.05
2023-05-05T02:45:09.905Z,11.35
2023-05-05T02:47:40.647Z,11.52
2023-05-05T02:50:11.181Z,11.10
2023-05-05T02:52:41.014Z,10.75
2023-05-05T02:55:11.420Z,11.52
2023-05-05T02:58:09.757Z,11.02
2023-05-05T03:00:47.908Z,10.80
2023-05-05T03:03:48.392Z,10.90
2023-05-05T03:06:22.408Z,10.93
2023-05-05T03:09:16.290Z,11.18
2023-05-05T03:12:07.508Z,11.85
2023-05-05T03:14:43.166Z,11.05
2023-05-05T03:17:14.671Z,11.60
2023-05-05T03:19:46.208Z,11.30
2023-05-05T03:22:15.997Z,11.55
2023-05-05T03:24:51.215Z,16.50
2023-05-05T03:27:22.250Z,12.57
2023-05-05T03:29:51.818Z,12.13
2023-05-05T03:32:21.674Z,11.50
2023-05-05T03:34:51.284Z,12.52
2023-05-05T03:37:20.930Z,12.48
2023-05-05T03:39:50.458Z,13.73
2023-05-05T03:42:19.979Z,13.32
2023-05-05T03:44:49.580Z,11.40
2023-05-05T03:47:19.193Z,12.02
2023-05-05T03:49:48.739Z,11.18
2023-05-05T03:52:18.327Z,12.95
2023-05-05T03:54:47.847Z,12.38
2023-05-05T03:57:18.290Z,12.63
2023-05-05T03:59:47.826Z,12.18
2023-05-05T04:02:18.621Z,12.25
2023-05-05T04:04:48.606Z,12.73
2023-05-05T04:07:18.286Z,11.73
2023-05-05T04:09:48.484Z,12.82
2023-05-05T04:12:18.253Z,12.30
2023-05-05T04:14:47.838Z,12.15
2023-05-05T04:17:17.463Z,12.50
2023-05-05T04:19:47.148Z,12.77
2023-05-05T04:22:16.817Z,11.73
2023-05-05T04:24:46.361Z,12.48
2023-05-05T04:27:15.945Z,14.23
2023-05-05T04:29:45.638Z,13.48
2023-05-05T04:32:15.480Z,12.60
2023-05-05T04:34:45.432Z,13.07
2023-05-05T04:37:15.269Z,14.32
2023-05-05T04:39:44.899Z,14.55
2023-05-05T04:42:16.876Z,13.30
2023-05-05T04:44:46.499Z,12.55
2023-05-05T04:47:16.104Z,13.05
2023-05-05T04:49:46.560Z,12.93
2023-05-05T04:52:16.413Z,13.60
2023-05-05T04:54:46.017Z,14.30
2023-05-05T04:57:15.621Z,14.10
2023-05-05T04:59:45.163Z,12.85
2023-05-05T05:02:14.840Z,12.52
2023-05-05T05:04:44.604Z,13.65
2023-05-05T05:07:16.408Z,13.40
2023-05-05T05:09:45.925Z,13.88
2023-05-05T05:12:16.078Z,12.82
2023-05-05T05:14:45.666Z,12.90
2023-05-05T05:17:15.216Z,13.60
2023-05-05T05:19:44.711Z,13.27
2023-05-05T05:22:14.245Z,12.55
2023-05-05T05:24:43.820Z,13.68
2023-05-05T05:27:13.498Z,13.65
2023-05-05T05:29:43.048Z,13.43
2023-05-05T05:32:12.732Z,11.80
2023-05-05T05:34:42.398Z,14.30
2023-05-05T05:37:11.997Z,13.35
2023-05-05T05:39:43.211Z,12.55
2023-05-05T05:42:13.212Z,12.95
2023-05-05T05:44:42.870Z,12.73
2023-05-05T05:47:12.720Z,12.07
2023-05-05T05:49:42.317Z,12.23
2023-05-05T05:52:11.948Z,12.48
2023-05-05T05:54:41.504Z,12.77
2023-05-05T05:57:11.139Z,12.10
2023-05-05T05:59:40.741Z,11.60
2023-05-05T06:02:11.268Z,12.68
2023-05-05T06:04:40.980Z,13.40
2023-05-05T06:07:10.627Z,12.02
2023-05-05T06:09:40.256Z,12.80
2023-05-05T06:12:09.949Z,11.90
2023-05-05T06:14:39.702Z,11.25
2023-05-05T06:17:09.338Z,12.00
2023-05-05T06:19:41.477Z,11.68
2023-05-05T06:22:11.342Z,10.85
2023-05-05T06:24:40.945Z,12.20
2023-05-05T06:27:11.007Z,12.38
2023-05-05T06:29:40.623Z,12.10
2023-05-05T06:32:10.272Z,11.73
2023-05-05T06:34:39.932Z,11.20
2023-05-05T06:37:09.628Z,12.45
2023-05-05T06:39:39.357Z,12.27
2023-05-05T06:42:08.988Z,11.40
2023-05-05T06:44:38.768Z,13.10
2023-05-05T06:47:08.541Z,11.70
2023-05-05T06:49:38.252Z,12.00
2023-05-05T06:52:09.900Z,11.93
2023-05-05T06:54:39.463Z,11.93
2023-05-05T06:57:09.405Z,12.38
2023-05-05T06:59:39.194Z,11.32
2023-05-05T07:02:08.925Z,12.32
2023-05-05T07:04:38.833Z,12.07
2023-05-05T07:07:08.548Z,12.32
2023-05-05T07:09:38.271Z,12.88
2023-05-05T07:12:08.010Z,11.27
2023-05-05T07:14:37.730Z,11.73
2023-05-05T07:17:07.861Z,11.80
2023-05-05T07:19:37.810Z,12.07
2023-05-05T07:22:07.517Z,11.77
2023-05-05T07:24:37.305Z,11.90
2023-05-05T07:27:07.086Z,11.80
2023-05-05T07:29:36.655Z,10.95
2023-05-05T07:32:06.458Z,13.02
2023-05-05T07:34:36.183Z,11.15
2023-05-05T07:37:06.888Z,11.55
2023-05-05T07:39:36.654Z,11.30
2023-05-05T07:42:06.304Z,11.75
2023-05-05T07:44:36.149Z,11.40
2023-05-05T07:47:05.845Z,12.32
2023-05-05T07:49:35.571Z,12.70
2023-05-05T07:52:05.205Z,11.20
2023-05-05T07:54:35.106Z,12.30
2023-05-05T07:57:04.747Z,11.93
2023-05-05T07:59:34.343Z,11.73
2023-05-05T08:02:04.801Z,10.73
2023-05-05T08:04:34.416Z,10.15
2023-05-05T08:07:03.964Z,10.27
2023-05-05T08:09:33.588Z,11.02
2023-05-05T08:12:04.654Z,10.38
2023-05-05T08:14:36.016Z,10.23
2023-05-05T08:17:08.593Z,10.30
2023-05-05T08:19:38.150Z,10.02
2023-05-05T08:22:07.743Z,9.75
2023-05-05T08:24:37.404Z,10.05
2023-05-05T08:27:06.999Z,10.10
2023-05-05T08:29:36.795Z,11.18
2023-05-05T08:32:06.391Z,11.10
2023-05-05T08:34:35.916Z,10.77
2023-05-05T08:37:05.419Z,11.27
2023-05-05T08:39:35.111Z,10.35
2023-05-05T08:42:05.761Z,9.70
2023-05-05T08:44:36.310Z,10.13
2023-05-05T08:47:07.323Z,9.65
2023-05-05T08:49:45.506Z,10.15
2023-05-05T08:52:25.260Z,10.30
2023-05-05T08:55:04.394Z,10.95
2023-05-05T08:57:52.983Z,10.05
2023-05-05T09:00:23.323Z,10.52
2023-05-05T09:02:54.691Z,9.60
2023-05-05T09:05:24.648Z,10.50
2023-05-05T09:07:54.455Z,10.40
2023-05-05T09:10:24.644Z,9.90
2023-05-05T09:12:54.473Z,10.02
2023-05-05T09:15:24.168Z,10.00
2023-05-05T09:17:53.841Z,9.98
2023-05-05T09:20:23.804Z,10.00
2023-05-05T09:22:54.916Z,10.25
2023-05-05T09:25:24.485Z,10.40
2023-05-05T09:27:54.047Z,10.80
2023-05-05T09:30:28.789Z,10.15
2023-05-05T09:32:58.389Z,11.00
2023-05-05T09:35:28.762Z,22.42
2023-05-05T09:37:59.187Z,20.60
2023-05-05T09:40:29.087Z,16.10
2023-05-05T09:43:04.562Z,12.70
2023-05-05T09:45:34.210Z,11.93
2023-05-05T09:48:03.867Z,11.38
2023-05-05T09:50:45.556Z,11.02
2023-05-05T09:53:15.376Z,11.07
2023-05-05T09:55:58.479Z,9.95
2023-05-05T09:58:30.422Z,9.48
2023-05-05T10:01:01.368Z,8.88
2023-05-05T10:03:31.545Z,8.75
2023-05-05T10:06:02.769Z,10.15
2023-05-05T10:08:35.778Z,10.35
2023-05-05T10:11:08.582Z,9.20
2023-05-05T10:13:44.690Z,10.13
2023-05-05T10:16:15.089Z,10.63
2023-05-05T10:18:48.352Z,14.00
2023-05-05T10:21:23.025Z,18.85
2023-05-05T10:24:18.631Z,12.57
2023-05-05T10:26:49.477Z,17.63
2023-05-05T10:29:41.722Z,17.45
2023-05-05T10:32:57.377Z,13.23
2023-05-05T10:35:36.745Z,20.35
2023-05-05T10:38:09.082Z,9.32
2023-05-05T10:40:38.858Z,9.95
2023-05-05T10:43:09.328Z,9.82
2023-05-05T10:45:40.383Z,9.55
2023-05-05T10:48:20.744Z,9.27
2023-05-05T10:51:01.488Z,10.35
2023-05-05T10:53:38.637Z,12.35
2023-05-05T10:56:26.992Z,12.25
2023-05-05T10:59:00.286Z,12.00
2023-05-05T11:01:35.728Z,10.15
2023-05-05T11:04:25.960Z,9.55
2023-05-05T11:07:22.210Z,9.13
2023-05-05T11:09:59.919Z,10.88
2023-05-05T11:15:39.368Z,12.82
2023-05-05T11:18:09.318Z,12.65
2023-05-05T11:21:05.416Z,12.48
2023-05-05T11:23:35.755Z,11.27
2023-05-05T11:26:05.817Z,12.23
2023-05-05T11:28:35.694Z,12.65
2023-05-05T11:31:21.580Z,12.27
2023-05-05T11:33:51.326Z,12.45
2023-05-05T11:36:22.671Z,12.77
2023-05-05T11:51:40.883Z,11.57
2023-05-05T11:54:10.697Z,12.68
2023-05-05T11:56:52.865Z,11.32
2023-05-05T11:59:22.628Z,11.10
2023-05-05T12:01:52.485Z,11.40
2023-05-05T12:04:22.361Z,10.88
2023-05-05T13:54:39.782Z,10.15
2023-05-05T13:57:09.748Z,10.13
2023-05-05T13:59:39.560Z,10.82
2023-05-05T14:02:09.495Z,11.57
2023-05-05T14:04:39.222Z,11.35
2023-05-05T14:07:10.758Z,10.52
2023-05-05T14:09:40.565Z,11.98
2023-05-05T14:12:10.574Z,11.18
2023-05-05T14:14:40.235Z,10.30
2023-05-05T14:17:09.935Z,10.90
2023-05-05T14:19:39.750Z,10.15
2023-05-05T14:22:09.485Z,11.32
2023-05-05T14:24:39.172Z,11.60
2023-05-05T14:27:08.936Z,11.05
2023-05-05T14:29:41.269Z,11.27
2023-05-05T14:32:11.164Z,11.10
2023-05-05T14:34:41.062Z,10.43
2023-05-05T14:37:10.789Z,12.43
2023-05-05T14:39:40.461Z,10.55
2023-05-05T14:42:10.137Z,10.90
2023-05-05T14:44:39.976Z,10.05
2023-05-05T14:47:09.681Z,11.32
2023-05-05T14:49:39.294Z,11.50
2023-05-05T14:52:09.119Z,11.80
2023-05-05T14:54:38.933Z,11.63
2023-05-05T14:57:09.262Z,11.75
2023-05-05T14:59:38.945Z,11.52
2023-05-05T15:02:10.504Z,11.15
2023-05-05T15:04:40.313Z,12.52
2023-05-05T15:07:10.042Z,12.00
2023-05-05T15:09:39.760Z,10.57
2023-05-05T15:12:09.695Z,11.48
2023-05-05T15:14:39.867Z,11.90
2023-05-05T15:17:09.512Z,11.82
2023-05-05T15:19:39.138Z,11.73
2023-05-05T15:22:08.736Z,11.70
2023-05-05T15:24:38.949Z,11.10
2023-05-05T15:27:08.916Z,11.82
2023-05-05T15:29:38.530Z,10.85
2023-05-05T15:32:09.869Z,11.98
2023-05-05T15:34:39.554Z,11.80
2023-05-05T15:37:09.247Z,11.80
2023-05-05T15:39:38.937Z,12.52
2023-05-05T15:42:09.077Z,11.05
2023-05-05T15:44:38.842Z,14.07
2023-05-05T15:47:09.544Z,13.90
2023-05-05T15:49:39.296Z,13.55
2023-05-05T15:52:09.590Z,13.10
2023-05-05T15:54:39.478Z,12.90
2023-05-05T15:57:09.840Z,13.48
2023-05-05T15:59:39.471Z,13.02
2023-05-05T16:02:09.252Z,14.80
2023-05-05T16:04:39.093Z,13.35
2023-05-05T16:07:09.440Z,13.93
2023-05-05T16:09:39.289Z,13.15
2023-05-05T16:12:08.844Z,12.77
2023-05-05T16:14:38.575Z,13.57
2023-05-05T16:17:09.186Z,13.20
2023-05-05T16:19:38.813Z,13.20
2023-05-05T16:22:09.351Z,13.00
2023-05-05T16:24:39.410Z,13.95
2023-05-05T16:27:09.170Z,14.13
2023-05-05T16:29:38.866Z,13.65
2023-05-05T16:32:08.620Z,14.90
2023-05-05T16:34:38.467Z,13.25
2023-05-05T16:37:08.178Z,14.30
2023-05-05T16:39:41.738Z,14.52
2023-05-05T16:42:11.344Z,15.00
2023-05-05T16:44:40.897Z,14.88
2023-05-05T16:47:10.441Z,16.13
2023-05-05T16:49:40.092Z,15.48
2023-05-05T16:52:09.732Z,15.77
2023-05-05T16:54:39.359Z,14.82
2023-05-05T16:57:08.933Z,15.32
2023-05-05T16:59:38.590Z,14.75
2023-05-05T17:02:08.709Z,15.48
2023-05-05T17:04:38.378Z,15.02
2023-05-05T17:07:08.053Z,13.95
2023-05-05T17:09:37.661Z,15.82
2023-05-05T17:12:07.573Z,16.10
2023-05-05T17:14:37.216Z,15.63
2023-05-05T17:17:06.809Z,16.48
2023-05-05T17:19:39.183Z,14.05
2023-05-05T17:22:08.791Z,14.80
2023-05-05T17:24:38.409Z,14.90
2023-05-05T17:27:08.164Z,15.63
2023-05-05T17:29:42.368Z,15.15
2023-05-05T17:32:12.146Z,15.43
2023-05-05T17:34:42.937Z,15.50
2023-05-05T17:37:12.787Z,15.70
2023-05-05T17:39:42.382Z,14.88
2023-05-05T17:42:12.388Z,15.15
2023-05-05T17:44:41.917Z,17.23
2023-05-05T17:47:12.219Z,15.48
2023-05-05T17:49:41.903Z,16.63
2023-05-05T17:52:11.456Z,17.00
2023-05-05T17:54:41.080Z,16.05
2023-05-05T17:57:11.046Z,16.33
2023-05-05T17:59:40.628Z,16.02
2023-05-05T18:02:10.253Z,16.45
2023-05-05T18:04:40.865Z,17.45
2023-05-05T18:07:11.911Z,17.40
2023-05-05T18:09:43.030Z,16.92
2023-05-05T18:12:12.778Z,16.67
2023-05-05T18:14:42.603Z,16.90
2023-05-05T18:17:12.228Z,16.67
2023-05-05T18:19:48.977Z,16.92
2023-05-05T18:22:19.350Z,17.50
2023-05-05T18:24:49.249Z,16.38
2023-05-05T18:27:18.859Z,17.70
2023-05-05T18:29:48.594Z,17.05
2023-05-05T18:32:18.261Z,16.42
2023-05-05T18:34:48.246Z,17.50
2023-05-05T18:37:17.972Z,16.88
2023-05-05T18:39:47.575Z,17.90
2023-05-05T18:42:17.311Z,18.23
2023-05-05T18:44:46.913Z,18.02
2023-05-05T18:47:16.555Z,17.55
2023-05-05T18:49:47.136Z,17.55
2023-05-05T18:52:17.310Z,18.52
2023-05-05T18:54:46.887Z,18.63
2023-05-05T18:57:16.421Z,17.67
2023-05-05T18:59:46.319Z,18.98
2023-05-05T19:02:15.920Z,19.05
2023-05-05T19:04:45.636Z,19.38
2023-05-05T19:07:27.656Z,18.90
2023-05-05T19:10:01.337Z,18.67
2023-05-05T19:12:31.047Z,19.10
2023-05-05T19:15:00.763Z,18.35
2023-05-05T19:17:30.513Z,19.58
2023-05-05T19:20:00.225Z,20.65
2023-05-05T19:22:29.980Z,18.73
2023-05-05T19:24:59.732Z,19.10
2023-05-05T19:27:29.517Z,19.88
2023-05-05T19:29:59.151Z,18.80
2023-05-05T19:32:28.893Z,20.00
2023-05-05T19:34:59.397Z,19.80
2023-05-05T19:37:29.399Z,20.60
2023-05-05T19:39:58.995Z,19.83
2023-05-05T19:42:29.106Z,19.63
2023-05-05T19:44:58.839Z,19.23
2023-05-05T19:47:28.512Z,18.80
2023-05-05T19:49:58.185Z,19.80
2023-05-05T19:52:28.382Z,21.10
2023-05-05T19:54:57.980Z,19.58
2023-05-05T19:57:28.003Z,19.60
2023-05-05T19:59:57.664Z,20.40
2023-05-05T20:02:28.830Z,19.98
2023-05-05T20:04:59.639Z,21.10
2023-05-05T20:07:29.338Z,20.73
2023-05-05T20:09:58.936Z,20.20
2023-05-05T20:12:29.190Z,21.10
2023-05-05T20:14:58.817Z,19.75
2023-05-05T20:17:28.564Z,20.63
2023-05-05T20:19:59.282Z,20.25
2023-05-05T20:22:28.931Z,19.95
2023-05-05T20:24:59.894Z,21.50
2023-05-05T20:27:29.610Z,20.05
2023-05-05T20:29:59.271Z,20.95
2023-05-05T20:32:29.129Z,20.40
2023-05-05T20:34:58.975Z,20.20
2023-05-05T20:37:28.969Z,20.85
2023-05-05T20:39:59.887Z,19.95
2023-05-05T20:42:31.185Z,19.63
2023-05-05T20:45:01.952Z,20.25
2023-05-05T20:47:31.696Z,20.50
2023-05-05T20:50:01.408Z,20.35
2023-05-05T20:52:31.100Z,20.08
2023-05-05T20:55:00.795Z,19.42
2023-05-05T20:57:30.558Z,20.95
2023-05-05T21:00:00.231Z,21.30
2023-05-05T21:02:29.955Z,19.38
2023-05-05T21:05:04.707Z,19.35
2023-05-05T21:07:35.861Z,19.63
2023-05-05T21:10:06.812Z,19.33
2023-05-05T21:12:37.076Z,19.77
2023-05-05T21:15:07.453Z,19.17
2023-05-05T21:17:37.492Z,18.90
2023-05-05T21:20:07.846Z,19.05
2023-05-05T21:22:38.019Z,19.58
2023-05-05T21:25:21.901Z,19.77
2023-05-05T21:27:52.186Z,18.92
2023-05-05T21:30:21.840Z,19.90
2023-05-05T21:32:51.811Z,19.30
2023-05-05T21:35:21.682Z,20.25
2023-05-05T21:37:51.712Z,19.45
2023-05-05T21:40:21.370Z,19.60
2023-05-05T21:42:51.094Z,19.80
2023-05-05T21:45:20.758Z,19.65
2023-05-05T21:47:50.507Z,20.10
2023-05-05T21:50:20.114Z,19.65
2023-05-05T21:52:49.864Z,19.83
2023-05-05T21:55:19.657Z,19.15
2023-05-05T21:57:49.318Z,20.00
2023-05-05T22:00:19.422Z,20.40
2023-05-05T22:02:49.215Z,19.15
2023-05-05T22:05:18.965Z,18.98
2023-05-05T22:07:48.617Z,19.77
2023-05-05T22:10:18.563Z,20.15
2023-05-05T22:12:48.370Z,20.38
2023-05-05T22:15:21.876Z,21.00
2023-05-05T22:17:52.420Z,20.88
2023-05-05T22:20:22.147Z,20.00
2023-05-05T22:22:51.917Z,19.10
2023-05-05T22:25:21.783Z,21.00
2023-05-05T22:27:51.528Z,19.38
2023-05-05T22:30:21.182Z,19.15
2023-05-05T22:32:50.932Z,19.52
2023-05-05T22:35:21.070Z,20.08
2023-05-05T22:37:50.742Z,20.35
2023-05-05T22:40:20.538Z,19.75
2023-05-05T22:42:50.159Z,20.77
2023-05-05T22:45:19.934Z,21.10
2023-05-05T22:47:49.624Z,21.77
2023-05-05T22:50:19.543Z,20.58
2023-05-05T22:52:49.510Z,21.98
2023-05-05T22:55:19.213Z,22.75
2023-05-05T22:57:49.672Z,21.85
2023-05-05T23:00:19.927Z,20.75
2023-05-05T23:02:49.643Z,20.85
2023-05-05T23:05:19.367Z,19.60
2023-05-05T23:07:49.002Z,21.20
2023-05-05T23:10:18.716Z,22.02
2023-05-05T23:12:48.759Z,23.45
2023-05-05T23:15:18.466Z,20.27
2023-05-05T23:17:48.215Z,20.98
2023-05-05T23:20:18.214Z,21.10
2023-05-05T23:22:47.813Z,21.55
2023-05-05T23:25:17.648Z,21.45
2023-05-05T23:27:47.307Z,20.70
2023-05-05T23:30:17.407Z,20.35
2023-05-05T23:32:47.621Z,20.13
2023-05-05T23:35:17.333Z,21.23
2023-05-05T23:37:47.373Z,23.95
2023-05-05T23:40:17.142Z,22.75
2023-05-05T23:42:46.840Z,21.92
2023-05-05T23:45:18.612Z,24.58
2023-05-05T23:47:49.120Z,23.42
2023-05-05T23:50:18.891Z,26.25
2023-05-05T23:52:48.545Z,22.92
2023-05-05T23:55:18.239Z,43.50
2023-05-05T23:57:47.871Z,23.35
